Time;durP1;ratioP1;P1;durP2;ratioP2;P2;SDS_P1;SDS_P2;PMS_P1;PMS_P2;Temp;Humidity;BMP_temperature;BMP_pressure;BME280_temperature;BME280_humidity;BME280_pressure;Samples;Min_cycle;Max_cycle;Signal;HPM_P1;HPM_P2
2023/03/18 00:01:17;;;;;;;5.82;2.38;;;11.90;99.90;;;;;;5078805;28;20050;-77
2023/03/18 00:03:44;;;;;;;5.30;2.47;;;11.90;99.90;;;;;;5074834;28;20518;-77
2023/03/18 00:06:17;;;;;;;3.85;2.25;;;11.90;99.90;;;;;;5092065;28;20506;-77
2023/03/18 00:08:46;;;;;;;9.00;3.05;;;11.80;99.90;;;;;;5092139;28;20074;-77
2023/03/18 00:11:14;;;;;;;4.82;3.08;;;11.90;99.90;;;;;;5095903;28;20403;-77
2023/03/18 00:13:41;;;;;;;4.63;2.60;;;11.90;99.90;;;;;;5095838;28;20036;-78
2023/03/18 00:16:10;;;;;;;8.60;2.75;;;12.80;99.90;;;;;;5095715;28;20388;-78
2023/03/18 00:18:36;;;;;;;5.70;3.17;;;11.90;99.90;;;;;;5095592;28;20048;-78
2023/03/18 00:21:03;;;;;;;4.80;2.70;;;11.90;99.90;;;;;;5095879;28;20119;-77
2023/03/18 00:23:29;;;;;;;6.47;2.30;;;11.90;99.90;;;;;;5095189;28;20127;-77
2023/03/18 00:25:56;;;;;;;5.32;2.47;;;11.90;99.90;;;;;;5095914;28;20559;-77
2023/03/18 00:28:23;;;;;;;7.75;2.78;;;12.00;99.90;;;;;;5095445;28;20047;-77
2023/03/18 00:30:49;;;;;;;5.97;2.85;;;12.70;99.90;;;;;;5078347;28;20039;-77
2023/03/18 00:33:15;;;;;;;4.00;2.25;;;12.80;99.90;;;;;;5095361;28;20122;-77
2023/03/18 00:35:41;;;;;;;4.13;2.47;;;12.00;99.90;;;;;;5095234;28;20040;-77
2023/03/18 00:38:08;;;;;;;4.28;2.40;;;11.90;99.90;;;;;;5095402;28;20040;-78
2023/03/18 00:40:42;;;;;;;4.72;2.78;;;12.00;99.90;;;;;;5078428;28;20039;-78
2023/03/18 00:43:11;;;;;;;3.67;2.75;;;11.90;99.90;;;;;;5078466;28;20047;-77
2023/03/18 00:45:39;;;;;;;4.68;2.72;;;11.90;99.90;;;;;;5095204;28;20051;-77
2023/03/18 00:48:06;;;;;;;5.20;2.80;;;11.90;99.90;;;;;;5095058;28;20109;-77
2023/03/18 00:50:33;;;;;;;6.05;3.22;;;11.90;99.90;;;;;;5095201;28;20082;-77
2023/03/18 00:52:59;;;;;;;6.70;3.00;;;12.50;99.90;;;;;;5095132;28;20047;-77
2023/03/18 00:55:26;;;;;;;7.20;2.72;;;13.10;99.90;;;;;;5095175;28;20066;-77
2023/03/18 00:57:52;;;;;;;4.28;2.53;;;12.40;99.90;;;;;;5095049;28;20075;-77
2023/03/18 01:00:18;;;;;;;7.85;3.47;;;11.80;99.90;;;;;;5094926;28;20047;-78
2023/03/18 01:02:44;;;;;;;6.53;3.75;;;11.80;99.90;;;;;;5094905;28;20040;-77
2023/03/18 01:05:12;;;;;;;7.65;3.95;;;12.70;99.90;;;;;;5094664;28;20511;-77
2023/03/18 01:07:38;;;;;;;10.07;3.80;;;11.80;99.90;;;;;;5094353;28;20046;-78
2023/03/18 01:10:05;;;;;;;8.02;4.28;;;11.80;1.00;;;;;;5094780;28;20039;-77
2023/03/18 01:12:31;;;;;;;5.63;2.97;;;11.80;1.00;;;;;;5094621;28;20505;-77
2023/03/18 01:14:56;;;;;;;5.78;3.78;;;11.70;1.00;;;;;;5095875;28;20123;-77
2023/03/18 01:17:22;;;;;;;5.60;3.10;;;11.70;1.00;;;;;;5094870;28;20028;-77
2023/03/18 01:19:48;;;;;;;6.97;3.80;;;11.70;1.00;;;;;;5094852;28;20044;-77
2023/03/18 01:22:14;;;;;;;8.43;4.50;;;11.60;1.00;;;;;;5093439;28;20036;-77
2023/03/18 01:24:40;;;;;;;7.47;4.05;;;12.10;88.50;;;;;;5094523;28;20491;-78
2023/03/18 01:27:06;;;;;;;7.63;4.70;;;11.50;76.70;;;;;;5094599;28;20136;-78
2023/03/18 01:29:32;;;;;;;6.55;4.22;;;11.50;99.90;;;;;;5094259;28;20089;-77
2023/03/18 01:31:59;;;;;;;9.85;4.80;;;11.40;99.90;;;;;;5077312;28;20058;-77
2023/03/18 01:34:24;;;;;;;10.23;4.57;;;11.40;99.90;;;;;;5094612;28;20039;-77
2023/03/18 01:36:50;;;;;;;6.88;4.30;;;11.30;99.90;;;;;;5094596;28;20036;-77
2023/03/18 01:39:16;;;;;;;7.55;4.57;;;11.20;99.90;;;;;;5094460;28;20032;-77
2023/03/18 01:41:43;;;;;;;7.18;4.70;;;11.10;99.90;;;;;;5077481;28;20059;-77
2023/03/18 01:44:19;;;;;;;8.48;4.72;;;11.10;1.00;;;;;;5094633;28;20127;-77
2023/03/18 01:46:50;;;;;;;8.30;5.35;;;11.10;1.00;;;;;;5078986;28;20480;-78
2023/03/18 01:49:21;;;;;;;11.65;5.25;;;11.10;1.00;;;;;;5093464;28;20088;-78
2023/03/18 01:52:11;;;;;;;7.38;5.15;;;11.00;99.90;;;;;;5076905;28;20036;-78
2023/03/18 01:54:42;;;;;;;9.63;5.35;;;11.00;59.40;;;;;;5094694;28;20058;-78
2023/03/18 01:57:07;;;;;;;8.48;5.45;;;11.00;99.90;;;;;;5093387;28;20385;-78
2023/03/18 01:59:37;;;;;;;8.75;5.00;;;10.90;1.00;;;;;;5093279;28;20122;-78
2023/03/18 02:02:14;;;;;;;8.68;5.43;;;10.90;99.90;;;;;;5093433;28;20040;-78
2023/03/18 02:04:48;;;;;;;12.27;5.95;;;10.90;99.90;;;;;;5093158;28;20060;-78
2023/03/18 02:07:22;;;;;;;10.30;5.72;;;10.80;99.90;;;;;;5093216;28;20150;-78
2023/03/18 02:09:49;;;;;;;9.23;5.68;;;10.80;1.00;;;;;;5093062;28;20043;-78
2023/03/18 02:12:21;;;;;;;10.15;5.82;;;10.80;99.90;;;;;;5093368;28;20078;-78
2023/03/18 02:14:49;;;;;;;11.65;6.47;;;10.70;99.90;;;;;;5093097;28;20063;-77
2023/03/18 02:17:18;;;;;;;11.55;5.32;;;12.10;1.00;;;;;;5093161;28;20039;-78
2023/03/18 02:20:01;;;;;;;7.60;5.57;;;10.60;99.90;;;;;;5093005;28;20048;-78
2023/03/18 02:22:33;;;;;;;13.93;6.47;;;10.60;99.90;;;;;;5093300;28;20479;-77
2023/03/18 02:25:11;;;;;;;11.80;5.65;;;10.50;1.70;;;;;;5093259;28;20055;-77
2023/03/18 02:27:40;;;;;;;10.93;6.28;;;10.50;99.90;;;;;;5075840;28;20406;-77
2023/03/18 02:30:12;;;;;;;9.18;6.28;;;10.40;99.90;;;;;;5092950;28;20048;-77
2023/03/18 02:32:40;;;;;;;10.82;6.07;;;10.40;99.90;;;;;;5092496;28;20407;-77
2023/03/18 02:35:09;;;;;;;9.25;5.70;;;10.30;99.90;;;;;;5092628;28;20040;-77
2023/03/18 02:37:34;;;;;;;10.15;6.60;;;10.30;99.90;;;;;;5092632;28;20036;-78
2023/03/18 02:40:17;;;;;;;10.05;5.93;;;10.20;99.90;;;;;;5075749;28;20498;-77
2023/03/18 02:42:43;;;;;;;7.70;5.78;;;10.20;99.90;;;;;;5092597;28;20430;-77
2023/03/18 02:45:21;;;;;;;10.48;5.35;;;10.10;99.90;;;;;;5092510;28;20032;-77
2023/03/18 02:47:48;;;;;;;10.93;6.30;;;10.10;99.90;;;;;;5092743;28;20050;-77
2023/03/18 02:50:14;;;;;;;10.00;6.72;;;10.10;99.90;;;;;;5092355;28;20036;-78
2023/03/18 02:52:41;;;;;;;9.63;6.28;;;10.10;99.90;;;;;;5092357;28;20040;-78
2023/03/18 02:55:07;;;;;;;12.15;6.82;;;10.10;99.90;;;;;;5092382;28;20484;-78
2023/03/18 02:57:32;;;;;;;10.95;6.55;;;10.10;99.90;;;;;;5092498;28;20032;-78
2023/03/18 02:59:58;;;;;;;10.13;6.43;;;10.10;99.90;;;;;;5092242;28;20122;-78
2023/03/18 03:02:23;;;;;;;17.23;7.60;;;10.10;1.00;;;;;;5113182;28;20040;-83
2023/03/18 03:04:50;;;;;;;11.25;6.93;;;10.10;1.00;;;;;;5094304;23;20393;-78
2023/03/18 03:07:16;;;;;;;13.20;6.80;;;12.20;1.00;;;;;;5074250;28;20048;-78
2023/03/18 03:09:42;;;;;;;16.17;7.20;;;9.90;1.00;;;;;;5057181;28;20041;-79
2023/03/18 03:12:08;;;;;;;15.32;7.15;;;12.60;1.00;;;;;;5073860;28;20036;-78
2023/03/18 03:14:33;;;;;;;9.30;6.32;;;10.10;1.00;;;;;;5072945;28;20036;-78
2023/03/18 03:16:59;;;;;;;10.95;6.68;;;12.50;1.00;;;;;;5038491;28;20094;-78
2023/03/18 03:19:24;;;;;;;12.95;7.40;;;10.70;1.00;;;;;;5073148;28;20426;-78
2023/03/18 03:21:50;;;;;;;15.15;7.38;;;9.80;1.00;;;;;;5038714;28;20432;-78
2023/03/18 03:24:16;;;;;;;16.33;6.55;;;10.50;1.00;;;;;;5073203;28;20037;-78
2023/03/18 03:26:41;;;;;;;15.00;8.05;;;12.40;1.00;;;;;;5072771;28;20090;-79
2023/03/18 03:29:07;;;;;;;14.95;8.07;;;11.90;1.00;;;;;;5073010;28;20036;-78
2023/03/18 03:31:33;;;;;;;14.25;7.38;;;12.20;1.00;;;;;;5054815;28;20065;-78
2023/03/18 03:33:59;;;;;;;16.23;7.28;;;11.20;1.00;;;;;;5072757;28;20039;-78
2023/03/18 03:36:24;;;;;;;12.40;6.68;;;10.30;1.00;;;;;;5072738;28;20072;-78
2023/03/18 03:38:50;;;;;;;11.43;6.22;;;12.00;1.00;;;;;;5072720;28;20446;-78
2023/03/18 03:41:16;;;;;;;13.57;7.43;;;12.20;1.00;;;;;;5054767;28;20417;-78
2023/03/18 03:43:43;;;;;;;11.25;6.55;;;12.40;7.30;;;;;;5072351;28;20072;-78
2023/03/18 03:46:09;;;;;;;13.68;7.07;;;10.00;1.00;;;;;;5055163;28;20480;-78
2023/03/18 03:48:37;;;;;;;16.90;6.70;;;12.60;2.80;;;;;;5072429;28;20511;-78
2023/03/18 03:51:03;;;;;;;14.05;7.80;;;9.90;2.40;;;;;;5054558;28;20043;-78
2023/03/18 03:53:29;;;;;;;10.45;7.22;;;9.80;20.90;;;;;;5056138;28;20459;-85
2023/03/18 03:55:55;;;;;;;10.93;7.50;;;9.80;39.60;;;;;;5080105;28;20040;-84
2023/03/18 03:58:21;;;;;;;14.70;7.70;;;9.70;42.00;;;;;;5081035;28;20029;-84
2023/03/18 04:00:47;;;;;;;11.05;6.63;;;9.70;36.70;;;;;;5081159;28;20024;-84
2023/03/18 04:03:12;;;;;;;13.50;7.32;;;9.60;35.50;;;;;;5064615;28;20029;-85
2023/03/18 04:05:38;;;;;;;12.25;7.03;;;9.60;47.30;;;;;;5078132;28;20033;-84
2023/03/18 04:08:04;;;;;;;9.77;6.47;;;9.60;50.50;;;;;;5081189;28;20041;-84
2023/03/18 04:10:29;;;;;;;13.93;7.50;;;9.60;67.80;;;;;;5081010;28;20054;-84
2023/03/18 04:12:55;;;;;;;12.23;7.65;;;9.60;82.50;;;;;;5081195;28;20078;-84
2023/03/18 04:15:21;;;;;;;13.80;8.02;;;9.60;79.10;;;;;;5081023;28;20099;-84
2023/03/18 04:17:48;;;;;;;20.80;8.82;;;9.60;86.90;;;;;;5060591;28;20158;-85
2023/03/18 04:20:16;;;;;;;11.80;7.30;;;9.60;87.00;;;;;;5038562;28;20063;-84
2023/03/18 04:22:42;;;;;;;13.70;8.48;;;9.60;83.30;;;;;;5038469;28;20091;-85
2023/03/18 04:25:10;;;;;;;13.15;7.03;;;10.70;88.70;;;;;;5055232;28;20029;-85
2023/03/18 04:27:36;;;;;;;16.45;7.78;;;9.60;90.40;;;;;;5054856;28;20049;-84
2023/03/18 04:30:07;;;;;;;15.10;8.70;;;11.20;92.20;;;;;;5054790;28;20124;-84
2023/03/18 04:32:33;;;;;;;15.00;8.57;;;9.60;93.60;;;;;;5054629;28;20047;-84
2023/03/18 04:34:58;;;;;;;13.88;7.95;;;9.50;90.30;;;;;;5054762;28;20407;-84
2023/03/18 04:37:24;;;;;;;12.65;7.88;;;9.60;89.90;;;;;;5054818;28;20072;-84
2023/03/18 04:39:49;;;;;;;16.05;7.30;;;9.60;95.00;;;;;;5038168;28;20040;-84
2023/03/18 04:42:16;;;;;;;20.65;8.35;;;9.60;93.30;;;;;;5055002;28;20477;-84
2023/03/18 04:44:42;;;;;;;15.98;8.07;;;9.60;92.30;;;;;;5054366;28;20045;-84
2023/03/18 04:47:09;;;;;;;13.38;8.23;;;9.60;94.90;;;;;;5054502;28;20114;-83
2023/03/18 04:49:34;;;;;;;20.67;8.18;;;9.60;97.60;;;;;;5054325;28;20033;-85
2023/03/18 04:52:01;;;;;;;13.68;7.93;;;9.60;97.00;;;;;;5037927;28;20098;-85
2023/03/18 04:54:27;;;;;;;16.00;7.68;;;9.60;98.30;;;;;;5054564;28;20538;-85
2023/03/18 04:56:52;;;;;;;17.10;8.60;;;9.60;98.80;;;;;;5056329;28;20086;-85
2023/03/18 04:59:18;;;;;;;18.77;8.75;;;9.60;99.90;;;;;;5058016;28;20047;-85
2023/03/18 05:01:44;;;;;;;17.13;7.32;;;9.60;99.90;;;;;;5041278;28;20040;-85
2023/03/18 05:04:09;;;;;;;19.08;9.23;;;9.70;99.90;;;;;;5041211;28;20071;-84
2023/03/18 05:06:36;;;;;;;13.25;8.48;;;9.60;99.90;;;;;;5054715;28;20508;-85
2023/03/18 05:09:04;;;;;;;17.38;9.77;;;9.70;99.90;;;;;;5057738;28;20040;-85
2023/03/18 05:11:30;;;;;;;17.85;9.13;;;9.70;99.90;;;;;;5057540;28;20036;-85
2023/03/18 05:13:56;;;;;;;18.58;9.27;;;9.70;99.90;;;;;;5041123;28;20121;-85
2023/03/18 05:16:22;;;;;;;14.48;8.10;;;9.70;99.90;;;;;;5057742;28;20083;-85
2023/03/18 05:18:48;;;;;;;14.27;8.43;;;9.70;99.60;;;;;;5057963;28;20388;-85
2023/03/18 05:21:14;;;;;;;15.45;8.60;;;10.60;99.90;;;;;;5040973;28;20044;-85
2023/03/18 05:23:40;;;;;;;14.07;8.30;;;9.70;99.90;;;;;;5057823;28;20119;-85
2023/03/18 05:26:05;;;;;;;16.83;9.88;;;11.00;99.90;;;;;;5057453;28;20137;-84
2023/03/18 05:28:32;;;;;;;12.57;7.60;;;9.70;99.90;;;;;;5057488;28;20043;-85
2023/03/18 05:30:58;;;;;;;17.52;9.38;;;9.70;99.90;;;;;;5040968;28;20086;-85
2023/03/18 05:33:24;;;;;;;14.93;8.13;;;9.70;99.90;;;;;;5057286;28;20044;-85
2023/03/18 05:35:50;;;;;;;17.10;9.45;;;9.70;99.90;;;;;;5057367;28;20055;-85
2023/03/18 05:38:16;;;;;;;16.73;9.82;;;9.70;99.90;;;;;;5040626;28;20480;-86
2023/03/18 05:40:42;;;;;;;13.82;9.25;;;9.70;99.90;;;;;;5040686;28;20127;-84
2023/03/18 05:43:08;;;;;;;15.60;9.00;;;9.70;99.90;;;;;;5057610;28;20127;-84
2023/03/18 05:45:33;;;;;;;16.70;8.20;;;9.70;99.90;;;;;;5057545;28;20128;-86
2023/03/18 05:47:59;;;;;;;18.77;8.52;;;10.20;99.90;;;;;;5040892;28;20040;-85
2023/03/18 05:50:37;;;;;;;15.18;8.85;;;9.60;99.90;;;;;;5040578;28;20551;-88
2023/03/18 05:53:03;;;;;;;18.85;8.82;;;9.60;99.90;;;;;;5056705;28;20036;-83
2023/03/18 05:55:29;;;;;;;16.58;8.73;;;9.60;99.90;;;;;;5056953;28;20039;-85
2023/03/18 05:57:59;;;;;;;12.13;8.23;;;9.60;99.90;;;;;;5057013;28;20076;-80
2023/03/18 06:00:27;;;;;;;17.65;8.95;;;11.60;99.90;;;;;;5040226;28;20070;-79
2023/03/18 06:02:53;;;;;;;13.05;7.38;;;9.60;99.90;;;;;;5040207;28;20098;-79
2023/03/18 06:05:21;;;;;;;12.35;8.30;;;9.60;99.90;;;;;;5074401;28;20049;-79
2023/03/18 06:07:47;;;;;;;11.85;7.82;;;11.60;99.90;;;;;;5056198;28;20047;-79
2023/03/18 06:10:13;;;;;;;13.93;8.82;;;12.30;99.90;;;;;;5056991;28;20037;-79
2023/03/18 06:12:40;;;;;;;15.70;8.07;;;11.20;99.90;;;;;;5056211;28;20043;-79
2023/03/18 06:15:07;;;;;;;13.98;8.38;;;9.40;99.90;;;;;;5039449;28;20049;-80
2023/03/18 06:17:33;;;;;;;14.38;7.95;;;9.70;99.90;;;;;;5056474;28;20434;-79
2023/03/18 06:20:08;;;;;;;13.18;7.70;;;9.50;99.90;;;;;;5039791;28;20131;-80
2023/03/18 06:22:34;;;;;;;13.57;7.72;;;9.70;99.90;;;;;;5040032;28;20098;-79
2023/03/18 06:25:01;;;;;;;12.90;7.43;;;9.30;99.90;;;;;;5056390;28;20071;-79
2023/03/18 06:27:27;;;;;;;11.63;7.78;;;11.30;99.90;;;;;;5056352;28;20415;-80
2023/03/18 06:29:53;;;;;;;18.10;8.65;;;9.60;99.90;;;;;;5056286;28;20039;-80
2023/03/18 06:32:18;;;;;;;19.35;8.93;;;11.40;99.90;;;;;;5040227;28;20099;-78
2023/03/18 06:34:44;;;;;;;17.15;7.95;;;9.80;99.90;;;;;;5056269;28;20075;-78
2023/03/18 06:37:10;;;;;;;14.15;7.95;;;11.10;99.90;;;;;;5073997;28;20033;-78
2023/03/18 06:39:37;;;;;;;13.95;8.38;;;9.80;99.90;;;;;;5056359;28;20055;-78
2023/03/18 06:42:02;;;;;;;14.93;8.32;;;11.20;99.90;;;;;;5039177;28;20028;-78
2023/03/18 06:44:28;;;;;;;16.02;8.40;;;9.90;99.90;;;;;;5039256;28;20048;-78
2023/03/18 06:46:55;;;;;;;14.40;7.60;;;9.80;99.90;;;;;;5039330;28;20135;-78
2023/03/18 06:49:20;;;;;;;16.20;9.15;;;12.20;99.90;;;;;;5055341;28;20403;-78
2023/03/18 06:51:47;;;;;;;14.73;8.00;;;12.10;99.90;;;;;;5038788;28;20123;-78
2023/03/18 06:54:13;;;;;;;12.88;8.38;;;9.90;98.50;;;;;;5055751;28;20079;-78
2023/03/18 06:56:40;;;;;;;12.32;7.78;;;12.60;96.90;;;;;;5055508;28;20476;-78
2023/03/18 06:59:08;;;;;;;16.17;8.77;;;12.40;96.00;;;;;;5038649;28;20127;-78
2023/03/18 07:01:35;;;;;;;15.75;8.65;;;12.10;93.20;;;;;;5038412;28;20349;-78
2023/03/18 07:04:02;;;;;;;14.52;9.02;;;10.20;91.60;;;;;;5055247;28;20044;-78
2023/03/18 07:06:29;;;;;;;11.95;7.43;;;11.60;91.60;;;;;;5038417;28;20052;-78
2023/03/18 07:08:56;;;;;;;11.60;8.40;;;9.80;88.10;;;;;;5038449;28;20044;-78
2023/03/18 07:11:22;;;;;;;16.45;8.65;;;9.70;91.30;;;;;;5038789;28;20040;-78
2023/03/18 07:13:48;;;;;;;15.55;8.77;;;10.00;90.60;;;;;;5038479;28;20040;-78
2023/03/18 07:16:14;;;;;;;16.35;7.95;;;12.60;81.50;;;;;;5038432;28;20354;-78
2023/03/18 07:18:40;;;;;;;15.48;8.25;;;11.80;77.80;;;;;;5037829;28;20399;-78
2023/03/18 07:21:05;;;;;;;14.63;8.35;;;10.50;64.60;;;;;;5038354;28;20109;-78
2023/03/18 07:23:31;;;;;;;14.63;7.93;;;12.50;38.00;;;;;;5038290;28;20048;-78
2023/03/18 07:25:57;;;;;;;13.68;8.65;;;13.10;21.40;;;;;;5054906;28;20040;-78
2023/03/18 07:28:23;;;;;;;12.07;7.15;;;10.80;12.30;;;;;;5054775;28;20541;-78
2023/03/18 07:30:49;;;;;;;12.23;8.23;;;12.10;12.70;;;;;;5038125;28;20037;-78
2023/03/18 07:33:15;;;;;;;15.98;8.77;;;13.60;8.30;;;;;;5055051;28;20486;-78
2023/03/18 07:35:40;;;;;;;17.38;8.15;;;10.80;6.10;;;;;;5021734;28;20477;-78
2023/03/18 07:38:10;;;;;;;12.10;7.88;;;12.70;1.00;;;;;;5038186;28;20454;-78
2023/03/18 07:40:36;;;;;;;12.75;7.35;;;10.80;1.00;;;;;;5038060;28;20212;-78
2023/03/18 07:43:03;;;;;;;15.43;8.32;;;13.50;1.00;;;;;;5038170;28;20036;-78
2023/03/18 07:45:29;;;;;;;11.48;7.25;;;10.90;1.00;;;;;;5037958;28;20083;-78
2023/03/18 07:47:54;;;;;;;15.70;7.68;;;12.90;1.00;;;;;;5037977;28;20067;-78
2023/03/18 07:50:20;;;;;;;16.67;7.65;;;13.30;1.00;;;;;;5037989;28;20036;-78
2023/03/18 07:52:47;;;;;;;11.38;7.57;;;10.80;1.00;;;;;;5054908;28;20055;-78
2023/03/18 07:55:13;;;;;;;13.07;7.55;;;12.80;1.00;;;;;;5038261;28;20497;-78
2023/03/18 07:57:38;;;;;;;11.68;7.38;;;13.50;1.00;;;;;;5037864;28;20097;-78
2023/03/18 08:00:05;;;;;;;12.57;7.18;;;13.10;1.00;;;;;;5038252;28;20396;-78
2023/03/18 08:02:32;;;;;;;15.00;8.68;;;10.80;1.00;;;;;;5054351;28;20047;-78
2023/03/18 08:04:58;;;;;;;13.55;7.13;;;12.70;1.00;;;;;;5037654;28;20106;-78
2023/03/18 08:07:24;;;;;;;19.52;8.13;;;12.70;1.00;;;;;;5038176;28;20564;-78
2023/03/18 08:09:49;;;;;;;11.73;7.70;;;10.90;1.00;;;;;;5037715;28;20040;-78
2023/03/18 08:12:16;;;;;;;17.10;8.43;;;12.80;1.00;;;;;;5038055;28;20056;-78
2023/03/18 08:14:42;;;;;;;12.52;6.80;;;13.30;1.00;;;;;;5037861;28;20453;-78
2023/03/18 08:17:08;;;;;;;14.43;8.13;;;10.90;1.00;;;;;;5037743;28;20037;-78
2023/03/18 08:19:34;;;;;;;15.68;7.35;;;13.30;1.00;;;;;;5037827;28;20047;-78
2023/03/18 08:22:00;;;;;;;14.57;8.45;;;11.00;1.00;;;;;;5038037;28;20047;-78
2023/03/18 08:24:26;;;;;;;16.38;7.63;;;12.50;1.00;;;;;;5037931;28;20036;-78
2023/03/18 08:26:51;;;;;;;11.80;6.90;;;13.30;1.00;;;;;;5037676;28;20036;-78
2023/03/18 08:29:17;;;;;;;16.08;7.72;;;11.00;1.00;;;;;;5037549;28;20075;-79
2023/03/18 08:31:43;;;;;;;10.93;7.68;;;11.60;1.00;;;;;;5041175;28;20132;-79
2023/03/18 08:34:09;;;;;;;12.25;7.90;;;13.60;1.00;;;;;;5041826;28;20036;-78
2023/03/18 08:36:35;;;;;;;13.30;8.05;;;13.60;1.00;;;;;;5057893;28;20435;-78
2023/03/18 08:39:02;;;;;;;13.65;7.40;;;13.80;1.00;;;;;;5041240;28;20040;-78
2023/03/18 08:41:28;;;;;;;15.70;9.05;;;11.40;1.00;;;;;;5041188;28;20040;-78
2023/03/18 08:43:56;;;;;;;14.32;8.48;;;13.70;1.00;;;;;;5057923;28;20109;-78
2023/03/18 08:46:22;;;;;;;16.38;8.90;;;11.40;1.00;;;;;;5041097;28;20122;-78
2023/03/18 08:48:48;;;;;;;12.85;8.07;;;11.30;1.00;;;;;;5041088;28;20071;-78
2023/03/18 08:51:15;;;;;;;15.27;8.50;;;11.40;1.00;;;;;;5041044;28;20440;-78
2023/03/18 08:53:41;;;;;;;11.57;7.68;;;13.90;1.00;;;;;;5041125;28;20045;-78
2023/03/18 08:56:07;;;;;;;11.35;8.07;;;13.60;1.00;;;;;;5041258;28;20039;-78
2023/03/18 08:58:35;;;;;;;11.65;7.82;;;13.00;1.00;;;;;;5041133;28;20484;-78
2023/03/18 09:01:04;;;;;;;15.25;7.40;;;11.40;1.00;;;;;;5024613;28;20042;-78
2023/03/18 09:03:29;;;;;;;12.88;8.38;;;13.60;1.00;;;;;;5057416;28;20451;-78
2023/03/18 09:05:56;;;;;;;16.23;7.95;;;13.90;1.00;;;;;;5057250;28;20049;-78
2023/03/18 09:08:22;;;;;;;13.70;7.82;;;12.00;17.60;;;;;;5040661;28;20055;-78
2023/03/18 09:10:53;;;;;;;16.52;7.30;;;13.40;13.80;;;;;;5057334;28;20037;-78
2023/03/18 09:13:19;;;;;;;13.45;8.93;;;11.60;20.50;;;;;;5057390;28;20032;-78
2023/03/18 09:15:45;;;;;;;12.15;8.40;;;11.20;1.00;;;;;;5040507;28;20079;-78
2023/03/18 09:18:12;;;;;;;14.57;8.27;;;14.50;1.00;;;;;;5057487;28;20075;-78
2023/03/18 09:20:39;;;;;;;17.45;9.68;;;12.90;1.00;;;;;;5040460;28;20048;-78
2023/03/18 09:23:05;;;;;;;13.13;8.73;;;13.50;1.00;;;;;;5040398;28;20037;-78
2023/03/18 09:25:31;;;;;;;15.70;9.30;;;14.40;1.00;;;;;;5040529;28;20086;-78
2023/03/18 09:27:57;;;;;;;17.52;9.57;;;12.80;99.90;;;;;;5056819;28;20044;-78
2023/03/18 09:30:24;;;;;;;19.67;9.40;;;15.50;99.90;;;;;;5040332;28;20064;-79
2023/03/18 09:32:50;;;;;;;16.33;10.10;;;14.50;99.90;;;;;;5056876;28;20051;-78
2023/03/18 09:35:15;;;;;;;19.10;9.90;;;13.30;99.90;;;;;;5056859;28;20032;-79
2023/03/18 09:37:42;;;;;;;18.42;10.13;;;13.50;1.00;;;;;;5040424;28;20040;-79
2023/03/18 09:40:18;;;;;;;16.88;9.57;;;13.50;1.00;;;;;;5057122;28;20059;-78
2023/03/18 09:43:21;;;;;;;15.52;9.40;;;13.50;99.90;;;;;;5023987;28;20123;-78
2023/03/18 09:46:15;;;;;;;16.58;9.15;;;13.60;99.90;;;;;;5000267;28;20059;-78
2023/03/18 09:48:52;;;;;;;16.67;9.35;;;13.90;99.90;;;;;;5039887;28;20048;-79
2023/03/18 09:51:45;;;;;;;18.08;11.20;;;14.20;52.90;;;;;;5056494;28;20037;-79
2023/03/18 09:54:16;;;;;;;18.50;10.55;;;16.60;99.90;;;;;;5056833;28;20043;-79
2023/03/18 09:56:44;;;;;;;14.07;9.35;;;15.50;99.90;;;;;;5056690;28;20040;-79
2023/03/18 09:59:18;;;;;;;20.35;9.68;;;14.50;99.90;;;;;;5056498;28;20444;-79
2023/03/18 10:01:47;;;;;;;15.98;9.50;;;14.80;99.90;;;;;;5039755;28;20465;-79
2023/03/18 10:04:20;;;;;;;17.05;9.98;;;17.10;99.90;;;;;;5039586;28;20428;-79
2023/03/18 10:06:49;;;;;;;18.50;10.35;;;16.20;99.90;;;;;;5056336;28;20048;-78
2023/03/18 10:09:41;;;;;;;14.60;9.68;;;16.50;99.90;;;;;;5039560;28;20053;-79
2023/03/18 10:12:11;;;;;;;16.02;10.20;;;15.30;99.90;;;;;;5039851;28;20037;-79
2023/03/18 10:15:06;;;;;;;14.07;9.77;;;15.30;99.90;;;;;;5039485;28;20032;-79
2023/03/18 10:17:57;;;;;;;16.83;9.48;;;15.40;99.90;;;;;;5032756;28;20044;-78
2023/03/18 10:20:49;;;;;;;16.90;9.05;;;15.30;99.90;;;;;;5056291;28;20043;-78
2023/03/18 10:23:45;;;;;;;15.90;9.50;;;15.10;99.90;;;;;;5039404;28;20111;-78
2023/03/18 10:26:29;;;;;;;16.77;9.88;;;14.90;99.90;;;;;;5039332;28;20045;-78
2023/03/18 10:28:58;;;;;;;19.65;9.90;;;14.80;99.90;;;;;;5055903;28;20485;-78
2023/03/18 10:31:35;;;;;;;15.48;10.30;;;14.30;99.90;;;;;;5039321;28;20043;-78
2023/03/18 10:34:17;;;;;;;15.27;9.65;;;14.60;99.90;;;;;;5044522;28;20123;-78
2023/03/18 10:36:54;;;;;;;12.18;8.52;;;14.70;99.90;;;;;;5054037;28;20037;-79
2023/03/18 10:39:23;;;;;;;17.25;10.43;;;14.50;99.90;;;;;;5056000;28;20102;-79
2023/03/18 10:41:52;;;;;;;14.70;9.32;;;14.40;99.90;;;;;;5022633;28;20067;-79
2023/03/18 10:44:32;;;;;;;13.27;8.13;;;15.00;99.90;;;;;;5055506;28;20044;-78
2023/03/18 10:47:23;;;;;;;20.63;9.23;;;14.40;99.90;;;;;;5055599;28;20094;-78
2023/03/18 10:50:27;;;;;;;16.75;9.35;;;14.50;99.90;;;;;;5044599;28;20061;-78
2023/03/18 10:53:14;;;;;;;15.30;8.60;;;14.50;99.90;;;;;;5034842;28;20044;-78
2023/03/18 10:56:06;;;;;;;11.82;7.95;;;14.60;99.90;;;;;;5038748;28;20060;-78
2023/03/18 10:58:32;;;;;;;16.58;9.10;;;14.60;99.90;;;;;;5055289;28;20051;-78
2023/03/18 11:00:58;;;;;;;16.15;8.82;;;14.50;99.90;;;;;;5055521;28;20037;-79
2023/03/18 11:03:32;;;;;;;17.60;8.48;;;14.60;99.90;;;;;;5038633;28;20040;-78
2023/03/18 11:06:01;;;;;;;16.08;7.93;;;16.80;99.90;;;;;;5038485;28;20141;-78
2023/03/18 11:08:34;;;;;;;14.20;7.30;;;14.40;99.90;;;;;;5054921;28;20123;-79
2023/03/18 11:11:19;;;;;;;18.20;8.07;;;14.90;99.90;;;;;;5038605;28;20385;-78
2023/03/18 11:13:51;;;;;;;14.98;8.18;;;16.50;99.90;;;;;;5055006;28;20043;-78
2023/03/18 11:16:28;;;;;;;13.43;7.40;;;14.80;99.90;;;;;;5055184;28;20048;-78
2023/03/18 11:18:54;;;;;;;12.43;7.47;;;14.80;99.90;;;;;;5055319;28;20419;-78
2023/03/18 11:21:20;;;;;;;14.50;7.78;;;14.60;99.90;;;;;;5038395;28;20037;-78
2023/03/18 11:24:19;;;;;;;9.40;6.63;;;16.10;99.90;;;;;;5055229;28;20488;-78
2023/03/18 11:26:54;;;;;;;10.90;6.93;;;14.70;99.90;;;;;;5038297;28;20044;-78
2023/03/18 11:29:25;;;;;;;9.93;6.65;;;15.70;99.90;;;;;;5022122;28;20047;-79
2023/03/18 11:31:56;;;;;;;11.25;7.03;;;14.80;99.90;;;;;;5055211;28;20078;-78
2023/03/18 11:34:23;;;;;;;;;;;15.00;99.90;;;;;;5038645;28;20400;-79
2023/03/18 11:36:59;;;;;;;12.77;6.68;;;16.40;99.90;;;;;;5054840;28;19939;-78
2023/03/18 11:39:27;;;;;;;13.65;7.68;;;18.10;99.90;;;;;;5038463;28;20052;-78
2023/03/18 11:41:53;;;;;;;9.60;6.93;;;15.60;99.90;;;;;;5054996;28;20052;-79
2023/03/18 11:44:26;;;;;;;10.18;6.75;;;16.50;99.90;;;;;;5054966;28;20043;-79
2023/03/18 11:47:12;;;;;;;10.10;6.57;;;15.80;99.90;;;;;;5038520;28;20130;-79
2023/03/18 11:49:38;;;;;;;8.57;6.00;;;16.10;99.90;;;;;;5038005;28;20417;-79
2023/03/18 11:52:03;;;;;;;8.43;5.28;;;15.70;99.90;;;;;;5054600;28;20032;-79
2023/03/18 11:54:47;;;;;;;10.32;5.45;;;15.70;99.90;;;;;;5037996;28;20530;-78
2023/03/18 11:57:17;;;;;;;8.30;5.05;;;16.00;99.90;;;;;;5054803;28;20048;-79
2023/03/18 11:59:51;;;;;;;10.10;5.55;;;;;;;;;;5054535;28;20058;-79
2023/03/18 12:02:41;;;;;;;10.88;5.07;;;16.50;99.90;;;;;;5054762;28;20052;-79
2023/03/18 12:05:13;;;;;;;5.57;4.35;;;16.90;99.90;;;;;;5038658;28;20068;-79
2023/03/18 12:08:11;;;;;;;6.70;4.80;;;17.10;99.90;;;;;;5041952;28;20051;-79
2023/03/18 12:10:45;;;;;;;8.68;4.68;;;16.70;99.90;;;;;;5042001;28;20036;-79
2023/03/18 12:13:36;;;;;;;5.93;4.25;;;16.70;99.90;;;;;;5058758;28;20040;-79
2023/03/18 12:16:15;;;;;;;6.53;4.13;;;17.00;99.90;;;;;;5041735;28;20039;-78
2023/03/18 12:19:06;;;;;;;6.07;3.95;;;17.20;99.90;;;;;;5058229;28;20082;-79
2023/03/18 12:21:59;;;;;;;6.32;3.70;;;16.70;99.90;;;;;;5041979;28;20045;-79
2023/03/18 12:24:51;;;;;;;5.38;2.90;;;16.90;99.90;;;;;;5041509;28;20055;-79
2023/03/18 12:27:35;;;;;;;4.38;2.72;;;16.90;99.90;;;;;;5041594;28;20037;-79
2023/03/18 12:30:08;;;;;;;4.20;3.13;;;17.30;99.90;;;;;;5041514;28;20040;-79
2023/03/18 12:32:37;;;;;;;5.40;2.55;;;;;;;;;;5058355;28;20051;-79
2023/03/18 12:35:15;;;;;;;5.25;2.97;;;17.70;99.90;;;;;;5058093;28;20127;-79
2023/03/18 12:38:18;;;;;;;4.80;2.60;;;18.50;99.90;;;;;;5057984;28;20414;-79
2023/03/18 12:41:11;;;;;;;4.45;2.58;;;17.90;99.90;;;;;;5041494;28;20129;-79
2023/03/18 12:44:17;;;;;;;2.10;1.45;;;18.30;99.90;;;;;;5058147;28;20403;-79
2023/03/18 12:47:22;;;;;;;3.90;2.17;;;18.40;99.90;;;;;;5058122;28;20051;-79
2023/03/18 12:50:02;;;;;;;3.47;1.95;;;18.40;99.90;;;;;;5034545;28;20061;-79
2023/03/18 12:52:37;;;;;;;5.13;2.08;;;18.30;99.90;;;;;;5041090;28;20044;-79
2023/03/18 12:55:26;;;;;;;3.78;1.88;;;18.20;99.90;;;;;;5057692;28;20132;-79
2023/03/18 12:58:18;;;;;;;3.13;1.75;;;18.00;99.90;;;;;;5057672;28;20037;-79
2023/03/18 13:00:51;;;;;;;4.15;1.58;;;18.00;99.90;;;;;;5057837;28;20063;-80